Taber, Idaho
Current Conditions -  °F | °C
As of 12:53 AM on Tuesday 27 Jan 2015 (Local Time) from KIDA Reporting Station
Clear Clear  
Wind Chill: 22°   Ceiling: Unl
Heat Index: 28°   Visibility: 10mi
Dew Point: 26°   Wind: 6mph
Humidity: 92%   Direction: 360°N
Pressure: 30.2"   Gusts: NA
Location:  43.2718°N, 112.405°W
Report Text: KIDA 270753Z AUTO 36005KT 10SM CLR M02/M03 A3020 RMK AO2 SLP247 T10221033
Loading
Personal Weather Stations






























Interactive Weather Map New forecast layout! Learn more

10-Day Weather Forecast

Advertisements
Track Severe Weather on mobile